Estación Meteorológica Peña el Pijo (Robertgarden) [ 02/03/23 03:13:31 CET ]

Fecha Hora Presion(HPa) Temp (°C) Humedad % Rocio (°C) Viento ( m/s) Direccion Lluvia 1Hora(mm) Lluvia 24H(mm) LLuvia Total(mm)
2012-Oct-18 01:01:11 1004.300 8.9 82 6.0         178.19
2012-Oct-18 02:01:13 1004.300 8.8 83 6.0         178.19
2012-Oct-18 03:01:53 1003.900 8.8 84 6.2         178.19
2012-Oct-18 04:01:47 1003.300 8.5 85 6.1         178.19
2012-Oct-18 05:01:53 1002.100 8.3 85 5.9         178.19
2012-Oct-18 06:01:48 1001.700 8.1 85 5.7         178.19
2012-Oct-18 07:01:12 1001.500 8.1 85 5.7         178.19
2012-Oct-18 08:01:14 1001.100 8.6 85 6.2         178.19
2012-Oct-18 09:01:14 1001.400 8.9 85 6.5         178.19
2012-Oct-18 10:01:14 1001.600 13.5 75 9.1         178.19
2012-Oct-18 11:01:21 1001.300 17.3 64 10.4         178.19
2012-Oct-18 12:01:22 1000.500 21.4 48 9.9         178.19
2012-Oct-18 13:01:19 999.900 24.2 38 8.9         178.19
2012-Oct-18 14:01:16 999.100 25.9 31 7.4         178.19
2012-Oct-18 15:01:13 998.300 26.6 32 8.5         178.19
2012-Oct-18 16:01:16 997.600 25.9 32 7.9         178.19
2012-Oct-18 17:01:17 998.100 25.3 35 8.7         178.19
2012-Oct-18 18:01:13 998.300 21.9 45 9.4         178.19
2012-Oct-18 19:01:12 998.300 19.1 55 9.8         178.19
2012-Oct-18 20:01:13 998.800 18.0 61 10.3         178.19
2012-Oct-18 21:01:15 999.100 17.4 63 10.3         178.19
2012-Oct-18 22:01:16 999.100 17.2 60 9.4         178.19
2012-Oct-18 23:01:13 999.000 16.9 58 8.6         178.19

Temperatura Máxima:26°    Temperatura Mínima:
Presión Máxima:1004.300 Hpa    Presión Mínima:997.600 Hpa


Volver